sensor_id;sensor_type;location;lat;lon;timestamp;pressure;altitude;pressure_sealevel;temperature;humidity
51439;BME280;38816;51.142;-0.974;2023-03-04T00:02:10;101490.00;;;4.00;94.04
51439;BME280;38816;51.142;-0.974;2023-03-04T00:04:35;101485.34;;;3.93;94.04
51439;BME280;38816;51.142;-0.974;2023-03-04T00:07:00;101495.00;;;3.98;94.36
51439;BME280;38816;51.142;-0.974;2023-03-04T00:09:26;101480.13;;;3.91;94.72
51439;BME280;38816;51.142;-0.974;2023-03-04T00:11:51;101485.94;;;3.89;94.71
51439;BME280;38816;51.142;-0.974;2023-03-04T00:14:17;101490.72;;;3.97;94.51
51439;BME280;38816;51.142;-0.974;2023-03-04T00:16:42;101492.56;;;4.00;94.31
51439;BME280;38816;51.142;-0.974;2023-03-04T00:19:09;101490.78;;;3.99;94.29
51439;BME280;38816;51.142;-0.974;2023-03-04T00:21:34;101485.72;;;3.99;94.31
51439;BME280;38816;51.142;-0.974;2023-03-04T00:24:00;101485.50;;;3.96;94.92
51439;BME280;38816;51.142;-0.974;2023-03-04T00:26:25;101477.59;;;3.91;95.07
51439;BME280;38816;51.142;-0.974;2023-03-04T00:28:51;101472.03;;;3.97;94.99
51439;BME280;38816;51.142;-0.974;2023-03-04T00:31:16;101492.56;;;4.00;93.82
51439;BME280;38816;51.142;-0.974;2023-03-04T00:33:42;101492.56;;;4.00;93.36
51439;BME280;38816;51.142;-0.974;2023-03-04T00:36:10;101475.16;;;3.93;93.69
51439;BME280;38816;51.142;-0.974;2023-03-04T00:38:36;101488.84;;;3.95;93.32
51439;BME280;38816;51.142;-0.974;2023-03-04T00:41:01;101488.25;;;3.99;92.99
51439;BME280;38816;51.142;-0.974;2023-03-04T00:43:27;101481.81;;;3.91;93.20
51439;BME280;38816;51.142;-0.974;2023-03-04T00:45:52;101501.69;;;3.96;93.52
51439;BME280;38816;51.142;-0.974;2023-03-04T00:48:17;101504.22;;;3.96;92.33
51439;BME280;38816;51.142;-0.974;2023-03-04T00:50:43;101496.09;;;4.02;91.39
51439;BME280;38816;51.142;-0.974;2023-03-04T00:53:09;101500.19;;;4.00;91.06
51439;BME280;38816;51.142;-0.974;2023-03-04T00:55:35;101496.75;;;3.99;91.50
51439;BME280;38816;51.142;-0.974;2023-03-04T00:58:01;101495.50;;;3.93;92.02
51439;BME280;38816;51.142;-0.974;2023-03-04T01:00:26;101494.13;;;3.98;92.32
51439;BME280;38816;51.142;-0.974;2023-03-04T01:02:51;101493.13;;;3.96;92.26
51439;BME280;38816;51.142;-0.974;2023-03-04T01:05:17;101497.06;;;3.91;92.49
51439;BME280;38816;51.142;-0.974;2023-03-04T01:07:42;101497.06;;;3.91;92.64
51439;BME280;38816;51.142;-0.974;2023-03-04T01:10:10;101508.69;;;4.00;91.75
51439;BME280;38816;51.142;-0.974;2023-03-04T01:12:35;101500.59;;;3.93;92.20
51439;BME280;38816;51.142;-0.974;2023-03-04T01:15:01;101497.06;;;3.91;92.66
51439;BME280;38816;51.142;-0.974;2023-03-04T01:17:27;101509.19;;;3.95;92.88
51439;BME280;38816;51.142;-0.974;2023-03-04T01:19:52;101496.19;;;3.90;92.56
51439;BME280;38816;51.142;-0.974;2023-03-04T01:22:18;101514.19;;;3.93;92.68
51439;BME280;38816;51.142;-0.974;2023-03-04T01:24:44;101499.44;;;3.88;92.77
51439;BME280;38816;51.142;-0.974;2023-03-04T01:27:10;101506.28;;;3.89;93.19
51439;BME280;38816;51.142;-0.974;2023-03-04T01:29:35;101500.19;;;3.87;93.42
51439;BME280;38816;51.142;-0.974;2023-03-04T01:32:00;101497.66;;;3.87;93.52
51439;BME280;38816;51.142;-0.974;2023-03-04T01:34:26;101501.28;;;3.90;93.87
51439;BME280;38816;51.142;-0.974;2023-03-04T01:36:51;101511.56;;;3.92;93.75
51439;BME280;38816;51.142;-0.974;2023-03-04T01:39:17;101498.66;;;3.89;93.48
51439;BME280;38816;51.142;-0.974;2023-03-04T01:41:42;101503.72;;;3.89;93.79
51439;BME280;38816;51.142;-0.974;2023-03-04T01:44:08;101498.66;;;3.89;94.42
51439;BME280;38816;51.142;-0.974;2023-03-04T01:46:35;101506.34;;;3.90;94.49
51439;BME280;38816;51.142;-0.974;2023-03-04T01:49:01;101484.94;;;3.87;94.44
51439;BME280;38816;51.142;-0.974;2023-03-04T01:51:26;101489.44;;;3.91;94.01
51439;BME280;38816;51.142;-0.974;2023-03-04T01:53:52;101491.97;;;3.91;93.88
51439;BME280;38816;51.142;-0.974;2023-03-04T01:56:23;101483.59;;;3.92;94.62
51439;BME280;38816;51.142;-0.974;2023-03-04T01:59:19;101485.94;;;3.89;94.73
51439;BME280;38816;51.142;-0.974;2023-03-04T02:01:48;101483.97;;;3.85;95.58
51439;BME280;38816;51.142;-0.974;2023-03-04T02:04:15;101478.00;;;3.84;95.92
51439;BME280;38816;51.142;-0.974;2023-03-04T02:06:42;101473.00;;;3.86;95.76
51439;BME280;38816;51.142;-0.974;2023-03-04T02:09:08;101463.63;;;3.85;95.38
51439;BME280;38816;51.142;-0.974;2023-03-04T02:11:35;101475.84;;;3.90;95.60
51439;BME280;38816;51.142;-0.974;2023-03-04T02:14:01;101461.06;;;3.85;95.80
51439;BME280;38816;51.142;-0.974;2023-03-04T02:16:27;101469.78;;;3.88;95.32
51439;BME280;38816;51.142;-0.974;2023-03-04T02:18:53;101467.25;;;3.88;95.83
51439;BME280;38816;51.142;-0.974;2023-03-04T02:21:31;101449.16;;;3.84;95.92
51439;BME280;38816;51.142;-0.974;2023-03-04T02:26:42;101458.25;;;3.80;97.38
51439;BME280;38816;51.142;-0.974;2023-03-04T02:29:09;101439.06;;;3.72;97.94
51439;BME280;38816;51.142;-0.974;2023-03-04T02:31:41;101445.91;;;3.73;97.94
51439;BME280;38816;51.142;-0.974;2023-03-04T02:34:12;101436.63;;;3.73;97.68
51439;BME280;38816;51.142;-0.974;2023-03-04T02:36:39;101440.66;;;3.70;97.98
51439;BME280;38816;51.142;-0.974;2023-03-04T02:39:35;101444.44;;;3.76;98.08
51439;BME280;38816;51.142;-0.974;2023-03-04T02:42:03;101442.50;;;3.72;98.02
51439;BME280;38816;51.142;-0.974;2023-03-04T02:44:31;101440.81;;;3.73;98.29
51439;BME280;38816;51.142;-0.974;2023-03-04T02:46:57;101439.16;;;3.73;97.68
51439;BME280;38816;51.142;-0.974;2023-03-04T02:49:25;101440.25;;;3.77;97.95
51439;BME280;38816;51.142;-0.974;2023-03-04T02:52:02;101438.19;;;3.71;98.34
51439;BME280;38816;51.142;-0.974;2023-03-04T02:54:28;101436.31;;;3.69;98.63
51439;BME280;38816;51.142;-0.974;2023-03-04T02:56:56;101425.56;;;3.60;98.75
51439;BME280;38816;51.142;-0.974;2023-03-04T02:59:22;101440.66;;;3.70;98.56
51439;BME280;38816;51.142;-0.974;2023-03-04T03:01:48;101435.28;;;3.65;98.12
51439;BME280;38816;51.142;-0.974;2023-03-04T03:04:14;101432.03;;;3.68;97.66
51439;BME280;38816;51.142;-0.974;2023-03-04T03:06:40;101441.69;;;3.73;97.19
51439;BME280;38816;51.142;-0.974;2023-03-04T03:09:06;101436.63;;;3.73;97.53
51439;BME280;38816;51.142;-0.974;2023-03-04T03:11:31;101428.03;;;3.71;97.63
51439;BME280;38816;51.142;-0.974;2023-03-04T03:13:57;101438.28;;;3.73;98.04
51439;BME280;38816;51.142;-0.974;2023-03-04T03:16:22;101432.75;;;3.65;98.62
51439;BME280;38816;51.142;-0.974;2023-03-04T03:18:48;101429.19;;;3.63;98.80
51439;BME280;38816;51.142;-0.974;2023-03-04T03:21:13;101435.00;;;3.61;99.29
51439;BME280;38816;51.142;-0.974;2023-03-04T03:23:39;101447.09;;;3.65;99.83
51439;BME280;38816;51.142;-0.974;2023-03-04T03:26:04;101444.38;;;3.62;100.00
51439;BME280;38816;51.142;-0.974;2023-03-04T03:28:30;101452.88;;;3.62;100.00
51439;BME280;38816;51.142;-0.974;2023-03-04T03:30:55;101441.81;;;3.62;100.00
51439;BME280;38816;51.142;-0.974;2023-03-04T03:33:21;101445.53;;;3.67;100.00
51439;BME280;38816;51.142;-0.974;2023-03-04T03:35:46;101441.53;;;3.57;100.00
51439;BME280;38816;51.142;-0.974;2023-03-04T03:38:12;101447.09;;;3.65;100.00
51439;BME280;38816;51.142;-0.974;2023-03-04T03:40:37;101452.88;;;3.62;100.00
51439;BME280;38816;51.142;-0.974;2023-03-04T03:43:03;101463.03;;;3.62;100.00
51439;BME280;38816;51.142;-0.974;2023-03-04T03:45:28;101445.16;;;3.61;100.00
51439;BME280;38816;51.142;-0.974;2023-03-04T03:47:53;101443.19;;;3.57;100.00
51439;BME280;38816;51.142;-0.974;2023-03-04T03:50:19;101459.72;;;3.63;100.00
51439;BME280;38816;51.142;-0.974;2023-03-04T03:52:44;101441.53;;;3.57;100.00
51439;BME280;38816;51.142;-0.974;2023-03-04T03:55:10;101447.28;;;3.54;100.00
51439;BME280;38816;51.142;-0.974;2023-03-04T03:57:35;101450.13;;;3.59;100.00
51439;BME280;38816;51.142;-0.974;2023-03-04T04:00:01;101450.03;;;3.58;100.00
51439;BME280;38816;51.142;-0.974;2023-03-04T04:02:26;101452.66;;;3.59;100.00
51439;BME280;38816;51.142;-0.974;2023-03-04T04:04:52;101438.00;;;3.55;100.00
51439;BME280;38816;51.142;-0.974;2023-03-04T04:07:17;101439.50;;;3.51;100.00
51439;BME280;38816;51.142;-0.974;2023-03-04T04:09:43;101437.31;;;3.44;100.00
51439;BME280;38816;51.142;-0.974;2023-03-04T04:12:08;101450.03;;;3.58;100.00
51439;BME280;38816;51.142;-0.974;2023-03-04T04:14:34;101431.75;;;3.50;100.00
51439;BME280;38816;51.142;-0.974;2023-03-04T04:16:59;101445.75;;;3.57;100.00
51439;BME280;38816;51.142;-0.974;2023-03-04T04:19:25;101443.56;;;3.63;100.00
51439;BME280;38816;51.142;-0.974;2023-03-04T04:21:50;101445.91;;;3.60;100.00
51439;BME280;38816;51.142;-0.974;2023-03-04T04:24:16;101445.84;;;3.58;100.00
51439;BME280;38816;51.142;-0.974;2023-03-04T04:26:41;101438.41;;;3.48;100.00
51439;BME280;38816;51.142;-0.974;2023-03-04T04:29:07;101440.94;;;3.48;100.00
51439;BME280;38816;51.142;-0.974;2023-03-04T04:31:33;101444.56;;;3.51;100.00
51439;BME280;38816;51.142;-0.974;2023-03-04T04:33:59;101447.59;;;3.46;100.00
51439;BME280;38816;51.142;-0.974;2023-03-04T04:36:24;101452.28;;;3.53;100.00
51439;BME280;38816;51.142;-0.974;2023-03-04T04:38:49;101448.97;;;3.54;100.00
51439;BME280;38816;51.142;-0.974;2023-03-04T04:41:24;101450.91;;;3.58;100.00
51439;BME280;38816;51.142;-0.974;2023-03-04T04:43:50;101454.03;;;3.54;100.00
51439;BME280;38816;51.142;-0.974;2023-03-04T04:46:16;101440.16;;;3.49;100.00
51439;BME280;38816;51.142;-0.974;2023-03-04T04:48:42;101455.03;;;3.56;100.00
51439;BME280;38816;51.142;-0.974;2023-03-04T04:51:07;101456.59;;;3.54;100.00
51439;BME280;38816;51.142;-0.974;2023-03-04T04:53:33;101456.50;;;3.52;100.00
51439;BME280;38816;51.142;-0.974;2023-03-04T04:55:59;101460.88;;;3.55;100.00
51439;BME280;38816;51.142;-0.974;2023-03-04T04:58:24;101450.53;;;3.52;100.00
51439;BME280;38816;51.142;-0.974;2023-03-04T05:04:02;101458.91;;;3.51;100.00
51439;BME280;38816;51.142;-0.974;2023-03-04T05:06:27;101462.47;;;3.53;100.00
51439;BME280;38816;51.142;-0.974;2023-03-04T05:08:53;101470.00;;;3.51;100.00
51439;BME280;38816;51.142;-0.974;2023-03-04T05:11:19;101461.47;;;3.51;100.00
51439;BME280;38816;51.142;-0.974;2023-03-04T05:13:46;101451.22;;;3.49;100.00
51439;BME280;38816;51.142;-0.974;2023-03-04T05:16:11;101454.53;;;3.48;100.00
51439;BME280;38816;51.142;-0.974;2023-03-04T05:18:37;101464.22;;;3.54;100.00
51439;BME280;38816;51.142;-0.974;2023-03-04T05:21:03;101461.59;;;3.52;100.00
51439;BME280;38816;51.142;-0.974;2023-03-04T05:23:32;101462.38;;;3.51;100.00
51439;BME280;38816;51.142;-0.974;2023-03-04T05:25:58;101451.91;;;3.47;100.00
51439;BME280;38816;51.142;-0.974;2023-03-04T05:28:23;101463.25;;;3.52;100.00
51439;BME280;38816;51.142;-0.974;2023-03-04T05:30:49;101453.84;;;3.51;100.00
51439;BME280;38816;51.142;-0.974;2023-03-04T05:33:16;101447.00;;;3.50;100.00
51439;BME280;38816;51.142;-0.974;2023-03-04T05:35:42;101452.78;;;3.47;100.00
51439;BME280;38816;51.142;-0.974;2023-03-04T05:38:10;101451.22;;;3.49;100.00
51439;BME280;38816;51.142;-0.974;2023-03-04T05:40:37;101456.28;;;3.49;100.00
51439;BME280;38816;51.142;-0.974;2023-03-04T05:43:03;101464.41;;;3.57;100.00
51439;BME280;38816;51.142;-0.974;2023-03-04T05:45:29;101467.03;;;3.59;100.00
51439;BME280;38816;51.142;-0.974;2023-03-04T05:47:54;101453.84;;;3.51;100.00
51439;BME280;38816;51.142;-0.974;2023-03-04T05:50:20;101466.84;;;3.55;100.00
51439;BME280;38816;51.142;-0.974;2023-03-04T05:52:46;101459.81;;;3.51;100.00
51439;BME280;38816;51.142;-0.974;2023-03-04T05:55:12;101465.88;;;3.53;100.00
51439;BME280;38816;51.142;-0.974;2023-03-04T05:57:37;101463.91;;;3.63;100.00
51439;BME280;38816;51.142;-0.974;2023-03-04T06:00:04;101447.13;;;3.51;100.00
51439;BME280;38816;51.142;-0.974;2023-03-04T06:02:30;101460.22;;;3.58;100.00
51439;BME280;38816;51.142;-0.974;2023-03-04T06:04:55;101456.19;;;3.61;100.00
51439;BME280;38816;51.142;-0.974;2023-03-04T06:07:21;101460.13;;;3.69;100.00
51439;BME280;38816;51.142;-0.974;2023-03-04T06:09:46;101467.44;;;3.65;100.00
51439;BME280;38816;51.142;-0.974;2023-03-04T06:12:12;101458.25;;;3.67;100.00
51439;BME280;38816;51.142;-0.974;2023-03-04T06:14:37;101460.28;;;3.72;100.00
51439;BME280;38816;51.142;-0.974;2023-03-04T06:17:03;101456.09;;;3.73;100.00
51439;BME280;38816;51.142;-0.974;2023-03-04T06:19:28;101446.91;;;3.62;100.00
51439;BME280;38816;51.142;-0.974;2023-03-04T06:21:54;101436.44;;;3.57;100.00
51439;BME280;38816;51.142;-0.974;2023-03-04T06:24:19;101462.75;;;3.71;100.00
51439;BME280;38816;51.142;-0.974;2023-03-04T06:26:45;101464.13;;;3.66;100.00
51439;BME280;38816;51.142;-0.974;2023-03-04T06:29:10;101472.22;;;3.73;100.00
51439;BME280;38816;51.142;-0.974;2023-03-04T06:31:36;101465.00;;;3.66;100.00
51439;BME280;38816;51.142;-0.974;2023-03-04T06:34:01;101465.59;;;3.62;100.00
51439;BME280;38816;51.142;-0.974;2023-03-04T06:36:27;101476.94;;;3.67;100.00
51439;BME280;38816;51.142;-0.974;2023-03-04T06:38:52;101452.66;;;3.59;99.72
51439;BME280;38816;51.142;-0.974;2023-03-04T06:41:17;101464.22;;;3.67;99.92
51439;BME280;38816;51.142;-0.974;2023-03-04T06:43:43;101469.22;;;3.66;100.00
51439;BME280;38816;51.142;-0.974;2023-03-04T06:46:09;101477.31;;;3.60;100.00
51439;BME280;38816;51.142;-0.974;2023-03-04T06:48:35;101473.41;;;3.65;99.80
51439;BME280;38816;51.142;-0.974;2023-03-04T06:51:08;101481.81;;;3.64;100.00
51439;BME280;38816;51.142;-0.974;2023-03-04T06:53:34;101466.97;;;3.57;100.00
51439;BME280;38816;51.142;-0.974;2023-03-04T06:56:00;101478.38;;;3.64;99.82
51439;BME280;38816;51.142;-0.974;2023-03-04T06:58:25;101496.31;;;3.65;100.00
51439;BME280;38816;51.142;-0.974;2023-03-04T07:00:51;101497.94;;;3.65;100.00
51439;BME280;38816;51.142;-0.974;2023-03-04T07:03:16;101495.41;;;3.65;100.00
51439;BME280;38816;51.142;-0.974;2023-03-04T07:05:41;101490.72;;;3.58;100.00
51439;BME280;38816;51.142;-0.974;2023-03-04T07:08:07;101490.00;;;3.60;100.00
51439;BME280;38816;51.142;-0.974;2023-03-04T07:10:32;101505.88;;;3.69;100.00
51439;BME280;38816;51.142;-0.974;2023-03-04T07:12:58;101506.28;;;3.75;100.00
51439;BME280;38816;51.142;-0.974;2023-03-04T07:15:23;101496.88;;;3.61;100.00
51439;BME280;38816;51.142;-0.974;2023-03-04T07:17:49;101495.59;;;3.54;100.00
51439;BME280;38816;51.142;-0.974;2023-03-04T07:20:14;101500.00;;;3.57;100.00
51439;BME280;38816;51.142;-0.974;2023-03-04T07:22:40;101498.63;;;3.62;100.00
51439;BME280;38816;51.142;-0.974;2023-03-04T07:25:05;101511.66;;;3.67;100.00
51439;BME280;38816;51.142;-0.974;2023-03-04T07:27:31;101510.34;;;3.60;100.00
51439;BME280;38816;51.142;-0.974;2023-03-04T07:29:56;101513.59;;;3.71;99.75
51439;BME280;38816;51.142;-0.974;2023-03-04T07:32:21;101516.66;;;3.65;99.60
51439;BME280;38816;51.142;-0.974;2023-03-04T07:34:47;101520.25;;;3.69;99.54
51439;BME280;38816;51.142;-0.974;2023-03-04T07:37:12;101523.78;;;3.71;99.94
51439;BME280;38816;51.142;-0.974;2023-03-04T07:39:38;101526.31;;;3.71;99.77
51439;BME280;38816;51.142;-0.974;2023-03-04T07:42:03;101528.78;;;3.69;99.76
51439;BME280;38816;51.142;-0.974;2023-03-04T07:44:29;101533.06;;;3.70;99.83
51439;BME280;38816;51.142;-0.974;2023-03-04T07:46:54;101532.00;;;3.67;99.92
51439;BME280;38816;51.142;-0.974;2023-03-04T07:49:20;101532.97;;;3.69;100.00
51439;BME280;38816;51.142;-0.974;2023-03-04T07:51:46;101522.59;;;3.66;99.57
51439;BME280;38816;51.142;-0.974;2023-03-04T07:54:11;101538.25;;;3.72;99.84
51439;BME280;38816;51.142;-0.974;2023-03-04T07:56:43;101541.78;;;3.74;99.15
51439;BME280;38816;51.142;-0.974;2023-03-04T07:59:08;101527.78;;;3.67;99.45
51439;BME280;38816;51.142;-0.974;2023-03-04T08:01:35;101527.00;;;3.68;99.78
51439;BME280;38816;51.142;-0.974;2023-03-04T08:04:02;101543.13;;;3.82;99.50
51439;BME280;38816;51.142;-0.974;2023-03-04T08:06:28;101540.00;;;3.86;98.68
51439;BME280;38816;51.142;-0.974;2023-03-04T08:08:59;101540.13;;;3.88;98.66
51439;BME280;38816;51.142;-0.974;2023-03-04T08:11:27;101528.75;;;3.83;98.57
51439;BME280;38816;51.142;-0.974;2023-03-04T08:13:53;101534.03;;;3.86;98.05
51439;BME280;38816;51.142;-0.974;2023-03-04T08:16:20;101528.75;;;3.83;97.66
51439;BME280;38816;51.142;-0.974;2023-03-04T08:18:49;101532.50;;;3.88;97.63
51439;BME280;38816;51.142;-0.974;2023-03-04T08:21:17;101544.63;;;3.92;98.11
51439;BME280;38816;51.142;-0.974;2023-03-04T08:23:46;101541.38;;;3.94;97.31
51439;BME280;38816;51.142;-0.974;2023-03-04T08:26:15;101531.31;;;3.96;96.33
51439;BME280;38816;51.142;-0.974;2023-03-04T08:28:41;101532.78;;;4.05;95.69
51439;BME280;38816;51.142;-0.974;2023-03-04T08:31:06;101525.25;;;4.07;95.55
51439;BME280;38816;51.142;-0.974;2023-03-04T08:33:32;101525.63;;;4.13;95.17
51439;BME280;38816;51.142;-0.974;2023-03-04T08:35:58;101528.84;;;4.24;95.34
51439;BME280;38816;51.142;-0.974;2023-03-04T08:38:24;101515.63;;;4.16;95.18
51439;BME280;38816;51.142;-0.974;2023-03-04T08:40:54;101537.94;;;4.34;94.03
51439;BME280;38816;51.142;-0.974;2023-03-04T08:43:20;101528.72;;;4.36;91.21
51439;BME280;38816;51.142;-0.974;2023-03-04T08:45:46;101535.75;;;4.40;90.63
51439;BME280;38816;51.142;-0.974;2023-03-04T08:48:11;101524.22;;;4.31;91.95
51439;BME280;38816;51.142;-0.974;2023-03-04T08:50:37;101526.97;;;4.35;92.45
51439;BME280;38816;51.142;-0.974;2023-03-04T08:53:02;101539.47;;;4.45;92.97
51439;BME280;38816;51.142;-0.974;2023-03-04T08:55:28;101528.44;;;4.31;93.06
51439;BME280;38816;51.142;-0.974;2023-03-04T08:57:53;101537.22;;;4.36;94.17
51439;BME280;38816;51.142;-0.974;2023-03-04T09:00:18;101536.19;;;4.32;94.92
51439;BME280;38816;51.142;-0.974;2023-03-04T09:02:45;101532.25;;;4.38;96.26
51439;BME280;38816;51.142;-0.974;2023-03-04T09:05:10;101532.03;;;4.48;96.30
51439;BME280;38816;51.142;-0.974;2023-03-04T09:07:36;101543.13;;;4.63;95.30
51439;BME280;38816;51.142;-0.974;2023-03-04T09:10:01;101538.78;;;4.75;93.81
51439;BME280;38816;51.142;-0.974;2023-03-04T09:12:27;101536.75;;;4.70;92.33
51439;BME280;38816;51.142;-0.974;2023-03-04T09:14:52;101541.16;;;4.72;92.18
51439;BME280;38816;51.142;-0.974;2023-03-04T09:17:17;101543.28;;;4.79;92.37
51439;BME280;38816;51.142;-0.974;2023-03-04T09:19:43;101543.44;;;4.96;91.21
51439;BME280;38816;51.142;-0.974;2023-03-04T09:22:08;101533.41;;;4.99;90.21
51439;BME280;38816;51.142;-0.974;2023-03-04T09:24:34;101541.72;;;5.10;88.06
51439;BME280;38816;51.142;-0.974;2023-03-04T09:26:59;101541.66;;;5.23;88.12
51439;BME280;38816;51.142;-0.974;2023-03-04T09:29:24;101544.63;;;5.30;86.69
51439;BME280;38816;51.142;-0.974;2023-03-04T09:31:50;101539.63;;;5.47;84.75
51439;BME280;38816;51.142;-0.974;2023-03-04T09:34:15;101542.19;;;5.47;84.25
51439;BME280;38816;51.142;-0.974;2023-03-04T09:36:41;101537.06;;;5.47;83.38
51439;BME280;38816;51.142;-0.974;2023-03-04T09:39:06;101538.56;;;5.58;84.74
51439;BME280;38816;51.142;-0.974;2023-03-04T09:41:43;101542.78;;;5.57;83.93
51439;BME280;38816;51.142;-0.974;2023-03-04T09:44:23;101544.56;;;5.58;84.16
51439;BME280;38816;51.142;-0.974;2023-03-04T09:46:50;101545.34;;;5.57;82.27
51439;BME280;38816;51.142;-0.974;2023-03-04T09:49:18;101533.13;;;5.52;83.09
51439;BME280;38816;51.142;-0.974;2023-03-04T09:51:56;101553.09;;;5.59;83.29
51439;BME280;38816;51.142;-0.974;2023-03-04T10:00:12;101538.84;;;5.77;82.11
51439;BME280;38816;51.142;-0.974;2023-03-04T10:02:52;101542.34;;;5.79;79.51
51439;BME280;38816;51.142;-0.974;2023-03-04T10:05:24;101536.97;;;5.75;79.11
51439;BME280;38816;51.142;-0.974;2023-03-04T10:07:57;101538.09;;;5.80;77.73
51439;BME280;38816;51.142;-0.974;2023-03-04T10:10:35;101532.59;;;5.72;75.21
51439;BME280;38816;51.142;-0.974;2023-03-04T10:13:03;101530.81;;;5.71;75.15
51439;BME280;38816;51.142;-0.974;2023-03-04T10:15:42;101525.03;;;5.74;76.63
51439;BME280;38816;51.142;-0.974;2023-03-04T10:18:30;101529.56;;;5.79;77.72
51439;BME280;38816;51.142;-0.974;2023-03-04T10:21:03;101527.75;;;5.92;78.30
51439;BME280;38816;51.142;-0.974;2023-03-04T10:23:33;101524.22;;;6.04;75.20
51439;BME280;38816;51.142;-0.974;2023-03-04T10:26:09;101524.91;;;6.02;76.26
51439;BME280;38816;51.142;-0.974;2023-03-04T10:28:36;101507.03;;;6.02;75.97
51439;BME280;38816;51.142;-0.974;2023-03-04T10:33:36;101529.78;;;6.28;75.09
51439;BME280;38816;51.142;-0.974;2023-03-04T10:38:56;101511.16;;;6.15;73.15
51439;BME280;38816;51.142;-0.974;2023-03-04T10:41:25;101521.19;;;6.12;73.78
51439;BME280;38816;51.142;-0.974;2023-03-04T10:46:26;101508.91;;;6.04;74.87
51439;BME280;38816;51.142;-0.974;2023-03-04T10:48:52;101518.06;;;6.01;73.66
51439;BME280;38816;51.142;-0.974;2023-03-04T10:51:19;101518.06;;;6.01;73.35
51439;BME280;38816;51.142;-0.974;2023-03-04T10:53:46;101513.28;;;6.07;73.46
51439;BME280;38816;51.142;-0.974;2023-03-04T10:56:33;101516.06;;;6.12;72.03
51439;BME280;38816;51.142;-0.974;2023-03-04T10:59:31;101518.38;;;6.22;71.06
51439;BME280;38816;51.142;-0.974;2023-03-04T11:01:59;101513.06;;;6.19;71.17
51439;BME280;38816;51.142;-0.974;2023-03-04T11:04:26;101514.06;;;6.06;73.33
51439;BME280;38816;51.142;-0.974;2023-03-04T11:06:52;101519.81;;;6.02;73.10
51439;BME280;38816;51.142;-0.974;2023-03-04T11:09:24;101514.88;;;6.05;74.08
51439;BME280;38816;51.142;-0.974;2023-03-04T11:11:51;101502.75;;;6.01;75.25
51439;BME280;38816;51.142;-0.974;2023-03-04T11:17:00;101494.47;;;6.05;75.15
51439;BME280;38816;51.142;-0.974;2023-03-04T11:19:33;101502.31;;;6.24;74.75
51439;BME280;38816;51.142;-0.974;2023-03-04T11:22:00;101499.06;;;6.27;72.03
51439;BME280;38816;51.142;-0.974;2023-03-04T11:24:28;101499.81;;;6.26;71.52
51439;BME280;38816;51.142;-0.974;2023-03-04T11:27:09;101490.34;;;6.23;72.02
51439;BME280;38816;51.142;-0.974;2023-03-04T11:29:47;101480.38;;;6.28;73.39
51439;BME280;38816;51.142;-0.974;2023-03-04T11:32:37;101498.03;;;6.40;72.39
51439;BME280;38816;51.142;-0.974;2023-03-04T11:35:26;101486.59;;;6.33;72.45
51439;BME280;38816;51.142;-0.974;2023-03-04T11:38:23;101492.28;;;6.27;72.60
51439;BME280;38816;51.142;-0.974;2023-03-04T11:40:54;101490.91;;;6.34;72.09
51439;BME280;38816;51.142;-0.974;2023-03-04T11:43:35;101496.13;;;6.36;71.98
51439;BME280;38816;51.142;-0.974;2023-03-04T11:51:37;101484.13;;;6.18;72.22
51439;BME280;38816;51.142;-0.974;2023-03-04T11:54:18;101488.66;;;6.24;72.01
51439;BME280;38816;51.142;-0.974;2023-03-04T12:00:00;101477.25;;;6.33;70.73
51439;BME280;38816;51.142;-0.974;2023-03-04T12:02:45;101478.53;;;6.25;71.45
51439;BME280;38816;51.142;-0.974;2023-03-04T12:10:29;101455.88;;;6.31;72.18
51439;BME280;38816;51.142;-0.974;2023-03-04T12:13:46;101462.44;;;6.43;73.00
51439;BME280;38816;51.142;-0.974;2023-03-04T12:21:16;101446.13;;;6.57;72.17
51439;BME280;38816;51.142;-0.974;2023-03-04T12:24:08;101443.81;;;6.62;71.06
51439;BME280;38816;51.142;-0.974;2023-03-04T12:27:13;101442.00;;;6.59;71.67
51439;BME280;38816;51.142;-0.974;2023-03-04T12:29:57;101438.09;;;6.49;72.08
51439;BME280;38816;51.142;-0.974;2023-03-04T12:35:40;101444.72;;;6.46;72.17
51439;BME280;38816;51.142;-0.974;2023-03-04T12:38:21;101431.94;;;6.46;71.92
51439;BME280;38816;51.142;-0.974;2023-03-04T12:52:53;101416.13;;;6.20;75.01
51439;BME280;38816;51.142;-0.974;2023-03-04T12:55:29;101430.00;;;6.25;73.74
51439;BME280;38816;51.142;-0.974;2023-03-04T12:57:58;101404.97;;;6.18;74.09
51439;BME280;38816;51.142;-0.974;2023-03-04T13:03:18;101419.41;;;6.18;75.44
51439;BME280;38816;51.142;-0.974;2023-03-04T13:05:56;101417.25;;;6.25;73.83
51439;BME280;38816;51.142;-0.974;2023-03-04T13:08:52;101401.44;;;6.16;73.67
51439;BME280;38816;51.142;-0.974;2023-03-04T13:16:56;101379.53;;;6.03;74.91
51439;BME280;38816;51.142;-0.974;2023-03-04T13:19:42;101391.84;;;6.12;74.84
51439;BME280;38816;51.142;-0.974;2023-03-04T13:25:40;101382.94;;;6.37;73.61
51439;BME280;38816;51.142;-0.974;2023-03-04T13:41:45;101374.13;;;6.48;72.83
51439;BME280;38816;51.142;-0.974;2023-03-04T13:47:08;101357.72;;;6.43;71.65
51439;BME280;38816;51.142;-0.974;2023-03-04T13:49:33;101362.50;;;6.37;71.80
51439;BME280;38816;51.142;-0.974;2023-03-04T13:52:38;101363.16;;;6.32;72.17
51439;BME280;38816;51.142;-0.974;2023-03-04T13:57:58;101354.78;;;6.19;72.18
51439;BME280;38816;51.142;-0.974;2023-03-04T14:00:24;101352.88;;;6.15;72.24
51439;BME280;38816;51.142;-0.974;2023-03-04T14:02:50;101357.25;;;6.17;73.18
51439;BME280;38816;51.142;-0.974;2023-03-04T14:05:15;101354.94;;;6.22;72.62
51439;BME280;38816;51.142;-0.974;2023-03-04T14:07:40;101343.84;;;6.21;72.54
51439;BME280;38816;51.142;-0.974;2023-03-04T14:10:20;101344.63;;;6.20;71.89
51439;BME280;38816;51.142;-0.974;2023-03-04T14:12:50;101352.16;;;6.17;72.05
51439;BME280;38816;51.142;-0.974;2023-03-04T14:15:24;101336.97;;;6.20;71.22
51439;BME280;38816;51.142;-0.974;2023-03-04T14:17:52;101348.16;;;6.06;72.02
51439;BME280;38816;51.142;-0.974;2023-03-04T14:20:28;101348.72;;;6.00;73.41
51439;BME280;38816;51.142;-0.974;2023-03-04T14:22:55;101335.72;;;5.96;73.90